sensor_id;sensor_type;location;lat;lon;timestamp;P1;durP1;ratioP1;P2;durP2;ratioP2
2049;SDS011;8478;49.208;8.806;2022-12-20T00:01:10;19.40;;;17.40;;
2049;SDS011;8478;49.208;8.806;2022-12-20T00:03:41;19.77;;;17.77;;
2049;SDS011;8478;49.208;8.806;2022-12-20T00:06:08;21.63;;;19.63;;
2049;SDS011;8478;49.208;8.806;2022-12-20T00:08:35;19.70;;;17.80;;
2049;SDS011;8478;49.208;8.806;2022-12-20T00:11:02;20.37;;;18.33;;
2049;SDS011;8478;49.208;8.806;2022-12-20T00:13:30;19.97;;;18.07;;
2049;SDS011;8478;49.208;8.806;2022-12-20T00:16:06;20.77;;;18.87;;
2049;SDS011;8478;49.208;8.806;2022-12-20T00:18:40;21.43;;;19.23;;
2049;SDS011;8478;49.208;8.806;2022-12-20T00:21:09;19.90;;;17.90;;
2049;SDS011;8478;49.208;8.806;2022-12-20T00:23:36;19.70;;;17.80;;
2049;SDS011;8478;49.208;8.806;2022-12-20T00:26:03;20.13;;;18.23;;
2049;SDS011;8478;49.208;8.806;2022-12-20T00:28:35;19.93;;;17.93;;
2049;SDS011;8478;49.208;8.806;2022-12-20T00:31:01;20.37;;;18.23;;
2049;SDS011;8478;49.208;8.806;2022-12-20T00:33:28;20.60;;;18.80;;
2049;SDS011;8478;49.208;8.806;2022-12-20T00:35:54;19.73;;;17.87;;
2049;SDS011;8478;49.208;8.806;2022-12-20T00:38:22;19.70;;;17.80;;
2049;SDS011;8478;49.208;8.806;2022-12-20T00:41:05;18.53;;;16.83;;
2049;SDS011;8478;49.208;8.806;2022-12-20T00:43:33;20.37;;;18.37;;
2049;SDS011;8478;49.208;8.806;2022-12-20T00:45:59;19.27;;;17.27;;
2049;SDS011;8478;49.208;8.806;2022-12-20T00:48:26;20.27;;;18.17;;
2049;SDS011;8478;49.208;8.806;2022-12-20T00:50:57;17.57;;;15.97;;
2049;SDS011;8478;49.208;8.806;2022-12-20T00:53:23;17.40;;;15.90;;
2049;SDS011;8478;49.208;8.806;2022-12-20T00:55:49;18.97;;;17.07;;
2049;SDS011;8478;49.208;8.806;2022-12-20T00:58:15;18.40;;;16.70;;
2049;SDS011;8478;49.208;8.806;2022-12-20T01:00:41;18.43;;;16.57;;
2049;SDS011;8478;49.208;8.806;2022-12-20T01:03:06;17.73;;;16.00;;
2049;SDS011;8478;49.208;8.806;2022-12-20T01:05:33;18.60;;;16.80;;
2049;SDS011;8478;49.208;8.806;2022-12-20T01:07:59;19.97;;;18.07;;
2049;SDS011;8478;49.208;8.806;2022-12-20T01:10:25;19.63;;;17.70;;
2049;SDS011;8478;49.208;8.806;2022-12-20T01:12:51;19.37;;;17.50;;
2049;SDS011;8478;49.208;8.806;2022-12-20T01:15:18;20.43;;;18.43;;
2049;SDS011;8478;49.208;8.806;2022-12-20T01:17:43;19.37;;;17.27;;
2049;SDS011;8478;49.208;8.806;2022-12-20T01:20:09;19.03;;;17.30;;
2049;SDS011;8478;49.208;8.806;2022-12-20T01:22:35;19.00;;;17.10;;
2049;SDS011;8478;49.208;8.806;2022-12-20T01:25:01;18.77;;;15.60;;
2049;SDS011;8478;49.208;8.806;2022-12-20T01:27:27;16.53;;;14.90;;
2049;SDS011;8478;49.208;8.806;2022-12-20T01:29:53;15.67;;;14.27;;
2049;SDS011;8478;49.208;8.806;2022-12-20T01:32:19;16.97;;;15.27;;
2049;SDS011;8478;49.208;8.806;2022-12-20T01:34:44;17.97;;;16.20;;
2049;SDS011;8478;49.208;8.806;2022-12-20T01:37:10;17.27;;;15.60;;
2049;SDS011;8478;49.208;8.806;2022-12-20T01:39:37;17.00;;;15.37;;
2049;SDS011;8478;49.208;8.806;2022-12-20T01:42:02;16.80;;;15.10;;
2049;SDS011;8478;49.208;8.806;2022-12-20T01:46:54;17.63;;;15.87;;
2049;SDS011;8478;49.208;8.806;2022-12-20T01:49:25;16.07;;;14.53;;
2049;SDS011;8478;49.208;8.806;2022-12-20T01:51:56;16.87;;;15.47;;
2049;SDS011;8478;49.208;8.806;2022-12-20T01:54:30;16.40;;;14.47;;
2049;SDS011;8478;49.208;8.806;2022-12-20T01:57:02;15.07;;;13.77;;
2049;SDS011;8478;49.208;8.806;2022-12-20T01:59:32;16.43;;;14.83;;
2049;SDS011;8478;49.208;8.806;2022-12-20T02:02:02;16.50;;;14.90;;
2049;SDS011;8478;49.208;8.806;2022-12-20T02:04:31;14.50;;;13.30;;
2049;SDS011;8478;49.208;8.806;2022-12-20T02:06:57;15.00;;;13.50;;
2049;SDS011;8478;49.208;8.806;2022-12-20T02:09:24;14.63;;;13.33;;
2049;SDS011;8478;49.208;8.806;2022-12-20T02:14:35;16.03;;;14.50;;
2049;SDS011;8478;49.208;8.806;2022-12-20T02:31:03;14.40;;;13.10;;
2049;SDS011;8478;49.208;8.806;2022-12-20T02:33:34;14.27;;;13.03;;
2049;SDS011;8478;49.208;8.806;2022-12-20T02:36:01;15.30;;;13.77;;
2049;SDS011;8478;49.208;8.806;2022-12-20T02:38:29;14.73;;;13.43;;
2049;SDS011;8478;49.208;8.806;2022-12-20T02:41:40;16.40;;;14.77;;
2049;SDS011;8478;49.208;8.806;2022-12-20T02:43:47;14.90;;;13.43;;
2049;SDS011;8478;49.208;8.806;2022-12-20T02:46:37;13.97;;;12.77;;
2049;SDS011;8478;49.208;8.806;2022-12-20T02:49:05;13.60;;;12.50;;
2049;SDS011;8478;49.208;8.806;2022-12-20T02:51:36;15.23;;;13.83;;
2049;SDS011;8478;49.208;8.806;2022-12-20T02:54:03;13.77;;;12.37;;
2049;SDS011;8478;49.208;8.806;2022-12-20T02:59:54;14.53;;;13.23;;
2049;SDS011;8478;49.208;8.806;2022-12-20T03:02:28;13.90;;;12.60;;
2049;SDS011;8478;49.208;8.806;2022-12-20T03:05:14;14.20;;;12.97;;
2049;SDS011;8478;49.208;8.806;2022-12-20T03:07:40;13.73;;;12.30;;
2049;SDS011;8478;49.208;8.806;2022-12-20T03:10:07;15.40;;;14.00;;
2049;SDS011;8478;49.208;8.806;2022-12-20T03:12:33;13.90;;;12.60;;
2049;SDS011;8478;49.208;8.806;2022-12-20T03:14:59;14.30;;;12.83;;
2049;SDS011;8478;49.208;8.806;2022-12-20T03:17:25;13.90;;;12.63;;
2049;SDS011;8478;49.208;8.806;2022-12-20T03:19:50;13.43;;;12.23;;
2049;SDS011;8478;49.208;8.806;2022-12-20T03:22:16;13.40;;;12.20;;
2049;SDS011;8478;49.208;8.806;2022-12-20T03:24:42;13.97;;;12.77;;
2049;SDS011;8478;49.208;8.806;2022-12-20T03:27:08;14.00;;;12.70;;
2049;SDS011;8478;49.208;8.806;2022-12-20T03:29:33;14.10;;;12.73;;
2049;SDS011;8478;49.208;8.806;2022-12-20T03:31:59;14.67;;;13.30;;
2049;SDS011;8478;49.208;8.806;2022-12-20T03:34:25;14.13;;;12.63;;
2049;SDS011;8478;49.208;8.806;2022-12-20T03:36:50;15.70;;;11.57;;
2049;SDS011;8478;49.208;8.806;2022-12-20T03:39:16;14.30;;;13.00;;
2049;SDS011;8478;49.208;8.806;2022-12-20T03:41:42;13.50;;;12.30;;
2049;SDS011;8478;49.208;8.806;2022-12-20T03:44:08;13.73;;;12.43;;
2049;SDS011;8478;49.208;8.806;2022-12-20T03:46:33;14.63;;;12.90;;
2049;SDS011;8478;49.208;8.806;2022-12-20T03:48:59;12.47;;;11.27;;
2049;SDS011;8478;49.208;8.806;2022-12-20T03:51:25;12.70;;;11.60;;
2049;SDS011;8478;49.208;8.806;2022-12-20T03:53:51;12.37;;;11.23;;
2049;SDS011;8478;49.208;8.806;2022-12-20T03:56:17;12.13;;;11.13;;
2049;SDS011;8478;49.208;8.806;2022-12-20T03:58:43;14.03;;;12.83;;
2049;SDS011;8478;49.208;8.806;2022-12-20T04:01:16;13.53;;;12.23;;
2049;SDS011;8478;49.208;8.806;2022-12-20T04:03:52;14.43;;;13.03;;
2049;SDS011;8478;49.208;8.806;2022-12-20T04:06:18;12.50;;;11.50;;
2049;SDS011;8478;49.208;8.806;2022-12-20T04:08:44;12.97;;;11.77;;
2049;SDS011;8478;49.208;8.806;2022-12-20T04:11:11;13.13;;;11.93;;
2049;SDS011;8478;49.208;8.806;2022-12-20T04:13:40;13.60;;;12.30;;
2049;SDS011;8478;49.208;8.806;2022-12-20T04:16:06;12.47;;;11.33;;
2049;SDS011;8478;49.208;8.806;2022-12-20T04:18:32;13.40;;;12.00;;
2049;SDS011;8478;49.208;8.806;2022-12-20T04:20:58;14.27;;;13.00;;
2049;SDS011;8478;49.208;8.806;2022-12-20T04:23:25;12.00;;;11.03;;
2049;SDS011;8478;49.208;8.806;2022-12-20T04:25:50;12.77;;;11.57;;
2049;SDS011;8478;49.208;8.806;2022-12-20T04:28:16;12.00;;;11.00;;
2049;SDS011;8478;49.208;8.806;2022-12-20T04:30:42;13.60;;;12.40;;
2049;SDS011;8478;49.208;8.806;2022-12-20T04:33:07;12.20;;;11.10;;
2049;SDS011;8478;49.208;8.806;2022-12-20T04:35:33;12.80;;;11.70;;
2049;SDS011;8478;49.208;8.806;2022-12-20T04:38:00;13.10;;;11.93;;
2049;SDS011;8478;49.208;8.806;2022-12-20T04:40:25;12.73;;;11.67;;
2049;SDS011;8478;49.208;8.806;2022-12-20T04:42:51;12.27;;;11.10;;
2049;SDS011;8478;49.208;8.806;2022-12-20T04:45:17;12.70;;;11.53;;
2049;SDS011;8478;49.208;8.806;2022-12-20T04:47:42;13.37;;;12.13;;
2049;SDS011;8478;49.208;8.806;2022-12-20T04:50:08;13.90;;;12.60;;
2049;SDS011;8478;49.208;8.806;2022-12-20T04:52:34;13.77;;;12.50;;
2049;SDS011;8478;49.208;8.806;2022-12-20T04:55:19;12.50;;;11.30;;
2049;SDS011;8478;49.208;8.806;2022-12-20T04:57:45;13.07;;;11.87;;
2049;SDS011;8478;49.208;8.806;2022-12-20T05:00:11;13.57;;;12.40;;
2049;SDS011;8478;49.208;8.806;2022-12-20T05:02:39;14.30;;;12.83;;
2049;SDS011;8478;49.208;8.806;2022-12-20T05:05:05;14.93;;;13.57;;
2049;SDS011;8478;49.208;8.806;2022-12-20T05:07:32;12.43;;;11.23;;
2049;SDS011;8478;49.208;8.806;2022-12-20T05:09:58;12.87;;;11.87;;
2049;SDS011;8478;49.208;8.806;2022-12-20T05:12:24;12.33;;;11.23;;
2049;SDS011;8478;49.208;8.806;2022-12-20T05:14:50;13.43;;;12.17;;
2049;SDS011;8478;49.208;8.806;2022-12-20T05:17:16;12.60;;;11.50;;
2049;SDS011;8478;49.208;8.806;2022-12-20T05:19:41;12.80;;;11.70;;
2049;SDS011;8478;49.208;8.806;2022-12-20T05:22:09;12.70;;;11.40;;
2049;SDS011;8478;49.208;8.806;2022-12-20T05:24:53;12.93;;;11.80;;
2049;SDS011;8478;49.208;8.806;2022-12-20T05:27:37;12.97;;;11.77;;
2049;SDS011;8478;49.208;8.806;2022-12-20T05:30:03;13.10;;;11.80;;
2049;SDS011;8478;49.208;8.806;2022-12-20T05:32:30;12.00;;;11.00;;
2049;SDS011;8478;49.208;8.806;2022-12-20T05:34:55;11.37;;;10.43;;
2049;SDS011;8478;49.208;8.806;2022-12-20T05:37:21;11.87;;;10.80;;
2049;SDS011;8478;49.208;8.806;2022-12-20T05:39:47;12.40;;;11.20;;
2049;SDS011;8478;49.208;8.806;2022-12-20T05:42:12;12.30;;;11.37;;
2049;SDS011;8478;49.208;8.806;2022-12-20T05:44:38;11.63;;;10.43;;
2049;SDS011;8478;49.208;8.806;2022-12-20T05:47:04;12.63;;;11.53;;
2049;SDS011;8478;49.208;8.806;2022-12-20T05:49:30;12.70;;;11.60;;
2049;SDS011;8478;49.208;8.806;2022-12-20T05:51:55;11.10;;;10.10;;
2049;SDS011;8478;49.208;8.806;2022-12-20T05:54:21;11.90;;;10.90;;
2049;SDS011;8478;49.208;8.806;2022-12-20T05:56:47;12.23;;;11.23;;
2049;SDS011;8478;49.208;8.806;2022-12-20T05:59:12;12.33;;;11.33;;
2049;SDS011;8478;49.208;8.806;2022-12-20T06:01:38;12.13;;;11.03;;
2049;SDS011;8478;49.208;8.806;2022-12-20T06:04:04;12.43;;;11.33;;
2049;SDS011;8478;49.208;8.806;2022-12-20T06:06:30;13.17;;;11.87;;
2049;SDS011;8478;49.208;8.806;2022-12-20T06:08:55;12.73;;;11.63;;
2049;SDS011;8478;49.208;8.806;2022-12-20T06:11:21;12.97;;;11.83;;
2049;SDS011;8478;49.208;8.806;2022-12-20T06:13:47;12.93;;;11.83;;
2049;SDS011;8478;49.208;8.806;2022-12-20T06:16:13;13.57;;;12.27;;
2049;SDS011;8478;49.208;8.806;2022-12-20T06:18:38;13.20;;;12.00;;
2049;SDS011;8478;49.208;8.806;2022-12-20T06:21:04;13.33;;;12.17;;
2049;SDS011;8478;49.208;8.806;2022-12-20T06:23:30;13.70;;;12.50;;
2049;SDS011;8478;49.208;8.806;2022-12-20T06:25:55;12.80;;;11.60;;
2049;SDS011;8478;49.208;8.806;2022-12-20T06:28:22;14.00;;;12.70;;
2049;SDS011;8478;49.208;8.806;2022-12-20T06:30:54;12.77;;;11.57;;
2049;SDS011;8478;49.208;8.806;2022-12-20T06:33:21;11.90;;;10.90;;
2049;SDS011;8478;49.208;8.806;2022-12-20T06:35:48;12.53;;;11.43;;
2049;SDS011;8478;49.208;8.806;2022-12-20T06:38:14;11.90;;;10.90;;
2049;SDS011;8478;49.208;8.806;2022-12-20T06:40:40;12.67;;;11.73;;
2049;SDS011;8478;49.208;8.806;2022-12-20T06:43:06;11.97;;;10.87;;
2049;SDS011;8478;49.208;8.806;2022-12-20T06:45:32;12.40;;;11.37;;
2049;SDS011;8478;49.208;8.806;2022-12-20T06:47:58;12.90;;;11.60;;
2049;SDS011;8478;49.208;8.806;2022-12-20T06:50:23;13.17;;;12.03;;
2049;SDS011;8478;49.208;8.806;2022-12-20T06:52:49;13.50;;;12.30;;
2049;SDS011;8478;49.208;8.806;2022-12-20T06:55:15;12.40;;;11.30;;
2049;SDS011;8478;49.208;8.806;2022-12-20T06:57:41;12.00;;;11.00;;
2049;SDS011;8478;49.208;8.806;2022-12-20T07:00:07;12.27;;;11.17;;
2049;SDS011;8478;49.208;8.806;2022-12-20T07:02:34;12.73;;;11.53;;
2049;SDS011;8478;49.208;8.806;2022-12-20T07:05:00;11.60;;;10.60;;
2049;SDS011;8478;49.208;8.806;2022-12-20T07:07:25;12.40;;;11.30;;
2049;SDS011;8478;49.208;8.806;2022-12-20T07:09:51;13.53;;;12.30;;
2049;SDS011;8478;49.208;8.806;2022-12-20T07:12:17;12.60;;;11.47;;
2049;SDS011;8478;49.208;8.806;2022-12-20T07:14:43;13.97;;;12.63;;
2049;SDS011;8478;49.208;8.806;2022-12-20T07:17:09;12.53;;;11.53;;
2049;SDS011;8478;49.208;8.806;2022-12-20T07:19:35;13.33;;;12.13;;
2049;SDS011;8478;49.208;8.806;2022-12-20T07:22:01;11.97;;;10.97;;
2049;SDS011;8478;49.208;8.806;2022-12-20T07:24:27;13.57;;;12.23;;
2049;SDS011;8478;49.208;8.806;2022-12-20T07:26:53;12.53;;;11.43;;
2049;SDS011;8478;49.208;8.806;2022-12-20T07:29:19;12.87;;;11.67;;
2049;SDS011;8478;49.208;8.806;2022-12-20T07:31:44;12.17;;;11.20;;
2049;SDS011;8478;49.208;8.806;2022-12-20T07:34:10;12.83;;;11.67;;
2049;SDS011;8478;49.208;8.806;2022-12-20T07:36:36;12.57;;;11.53;;
2049;SDS011;8478;49.208;8.806;2022-12-20T07:39:02;12.77;;;11.77;;
2049;SDS011;8478;49.208;8.806;2022-12-20T07:41:28;12.97;;;11.73;;
2049;SDS011;8478;49.208;8.806;2022-12-20T07:43:54;12.47;;;11.53;;
2049;SDS011;8478;49.208;8.806;2022-12-20T07:46:19;13.00;;;11.83;;
2049;SDS011;8478;49.208;8.806;2022-12-20T07:48:45;12.53;;;11.43;;
2049;SDS011;8478;49.208;8.806;2022-12-20T07:51:13;13.00;;;11.90;;
2049;SDS011;8478;49.208;8.806;2022-12-20T07:53:43;11.70;;;10.67;;
2049;SDS011;8478;49.208;8.806;2022-12-20T07:56:14;14.80;;;13.30;;
2049;SDS011;8478;49.208;8.806;2022-12-20T07:58:40;12.63;;;11.33;;
2049;SDS011;8478;49.208;8.806;2022-12-20T08:01:07;11.20;;;10.30;;
2049;SDS011;8478;49.208;8.806;2022-12-20T08:03:44;11.83;;;10.70;;
2049;SDS011;8478;49.208;8.806;2022-12-20T08:06:13;11.17;;;10.10;;
2049;SDS011;8478;49.208;8.806;2022-12-20T08:08:42;11.90;;;10.90;;
2049;SDS011;8478;49.208;8.806;2022-12-20T08:11:12;13.43;;;12.30;;
2049;SDS011;8478;49.208;8.806;2022-12-20T08:13:39;12.57;;;11.37;;
2049;SDS011;8478;49.208;8.806;2022-12-20T08:16:05;14.93;;;13.53;;
2049;SDS011;8478;49.208;8.806;2022-12-20T08:18:31;14.17;;;12.87;;
2049;SDS011;8478;49.208;8.806;2022-12-20T08:20:57;15.73;;;14.40;;
2049;SDS011;8478;49.208;8.806;2022-12-20T08:23:22;15.50;;;14.10;;
2049;SDS011;8478;49.208;8.806;2022-12-20T08:25:48;14.77;;;13.50;;
2049;SDS011;8478;49.208;8.806;2022-12-20T08:28:14;15.20;;;13.80;;
2049;SDS011;8478;49.208;8.806;2022-12-20T08:30:40;14.80;;;13.50;;
2049;SDS011;8478;49.208;8.806;2022-12-20T08:33:05;15.03;;;13.70;;
2049;SDS011;8478;49.208;8.806;2022-12-20T08:35:32;14.53;;;13.37;;
2049;SDS011;8478;49.208;8.806;2022-12-20T08:37:57;14.60;;;13.43;;
2049;SDS011;8478;49.208;8.806;2022-12-20T08:40:23;14.07;;;12.97;;
2049;SDS011;8478;49.208;8.806;2022-12-20T08:42:49;14.13;;;12.97;;
2049;SDS011;8478;49.208;8.806;2022-12-20T08:45:15;15.27;;;13.77;;
2049;SDS011;8478;49.208;8.806;2022-12-20T08:47:40;15.03;;;13.80;;
2049;SDS011;8478;49.208;8.806;2022-12-20T08:50:06;14.93;;;13.60;;
2049;SDS011;8478;49.208;8.806;2022-12-20T08:52:32;15.83;;;14.10;;
2049;SDS011;8478;49.208;8.806;2022-12-20T08:54:58;15.33;;;14.00;;
2049;SDS011;8478;49.208;8.806;2022-12-20T08:57:24;14.47;;;13.20;;
2049;SDS011;8478;49.208;8.806;2022-12-20T08:59:49;14.10;;;12.90;;
2049;SDS011;8478;49.208;8.806;2022-12-20T09:02:15;13.87;;;12.67;;
2049;SDS011;8478;49.208;8.806;2022-12-20T09:04:41;14.53;;;13.20;;
2049;SDS011;8478;49.208;8.806;2022-12-20T09:07:08;13.90;;;12.70;;
2049;SDS011;8478;49.208;8.806;2022-12-20T09:09:35;14.63;;;13.23;;
2049;SDS011;8478;49.208;8.806;2022-12-20T09:12:00;13.60;;;12.37;;
2049;SDS011;8478;49.208;8.806;2022-12-20T09:14:26;13.60;;;12.40;;
2049;SDS011;8478;49.208;8.806;2022-12-20T09:16:52;13.57;;;12.50;;
2049;SDS011;8478;49.208;8.806;2022-12-20T09:19:18;13.67;;;12.47;;
2049;SDS011;8478;49.208;8.806;2022-12-20T09:21:43;12.73;;;11.63;;
2049;SDS011;8478;49.208;8.806;2022-12-20T09:24:09;12.83;;;11.73;;
2049;SDS011;8478;49.208;8.806;2022-12-20T09:26:35;13.00;;;12.00;;
2049;SDS011;8478;49.208;8.806;2022-12-20T09:29:01;15.07;;;13.77;;
2049;SDS011;8478;49.208;8.806;2022-12-20T09:31:27;15.07;;;13.77;;
2049;SDS011;8478;49.208;8.806;2022-12-20T09:33:57;16.60;;;15.20;;
2049;SDS011;8478;49.208;8.806;2022-12-20T09:36:23;16.93;;;15.40;;
2049;SDS011;8478;49.208;8.806;2022-12-20T09:38:50;16.73;;;15.13;;
2049;SDS011;8478;49.208;8.806;2022-12-20T09:41:26;17.50;;;15.80;;
2049;SDS011;8478;49.208;8.806;2022-12-20T09:43:53;17.03;;;15.63;;
2049;SDS011;8478;49.208;8.806;2022-12-20T09:46:20;17.80;;;16.03;;
2049;SDS011;8478;49.208;8.806;2022-12-20T09:48:48;17.80;;;16.10;;
2049;SDS011;8478;49.208;8.806;2022-12-20T09:59:23;19.03;;;17.50;;
2049;SDS011;8478;49.208;8.806;2022-12-20T10:01:49;18.07;;;16.40;;
2049;SDS011;8478;49.208;8.806;2022-12-20T10:12:26;16.87;;;15.27;;
2049;SDS011;8478;49.208;8.806;2022-12-20T10:23:55;21.07;;;18.90;;
2049;SDS011;8478;49.208;8.806;2022-12-20T10:26:22;21.13;;;18.70;;
2049;SDS011;8478;49.208;8.806;2022-12-20T10:28:48;19.97;;;17.90;;
2049;SDS011;8478;49.208;8.806;2022-12-20T10:31:15;17.33;;;15.63;;
2049;SDS011;8478;49.208;8.806;2022-12-20T10:33:42;18.30;;;16.60;;
2049;SDS011;8478;49.208;8.806;2022-12-20T10:36:19;20.37;;;18.13;;
2049;SDS011;8478;49.208;8.806;2022-12-20T10:38:58;22.17;;;19.37;;
2049;SDS011;8478;49.208;8.806;2022-12-20T10:41:29;27.43;;;19.37;;
2049;SDS011;8478;49.208;8.806;2022-12-20T10:46:47;21.17;;;18.97;;
2049;SDS011;8478;49.208;8.806;2022-12-20T10:49:34;21.50;;;19.50;;
2049;SDS011;8478;49.208;8.806;2022-12-20T10:54:37;20.20;;;17.80;;
2049;SDS011;8478;49.208;8.806;2022-12-20T10:59:55;22.37;;;20.07;;
2049;SDS011;8478;49.208;8.806;2022-12-20T11:02:34;25.80;;;22.50;;
2049;SDS011;8478;49.208;8.806;2022-12-20T11:07:34;25.23;;;22.70;;
2049;SDS011;8478;49.208;8.806;2022-12-20T11:10:18;22.80;;;20.60;;
2049;SDS011;8478;49.208;8.806;2022-12-20T11:12:53;26.43;;;23.20;;
2049;SDS011;8478;49.208;8.806;2022-12-20T11:15:21;25.10;;;20.70;;
2049;SDS011;8478;49.208;8.806;2022-12-20T11:17:49;24.83;;;22.33;;
2049;SDS011;8478;49.208;8.806;2022-12-20T11:28:03;23.67;;;21.40;;
2049;SDS011;8478;49.208;8.806;2022-12-20T11:33:44;23.30;;;21.20;;
2049;SDS011;8478;49.208;8.806;2022-12-20T11:36:26;24.50;;;21.97;;
2049;SDS011;8478;49.208;8.806;2022-12-20T11:39:21;23.20;;;21.03;;
2049;SDS011;8478;49.208;8.806;2022-12-20T11:53:41;24.37;;;21.83;;
2049;SDS011;8478;49.208;8.806;2022-12-20T11:56:14;24.53;;;22.23;;
2049;SDS011;8478;49.208;8.806;2022-12-20T11:58:50;23.83;;;21.37;;
2049;SDS011;8478;49.208;8.806;2022-12-20T12:01:36;24.57;;;22.50;;
2049;SDS011;8478;49.208;8.806;2022-12-20T12:04:32;24.90;;;22.57;;
2049;SDS011;8478;49.208;8.806;2022-12-20T12:07:20;27.10;;;24.63;;
2049;SDS011;8478;49.208;8.806;2022-12-20T12:09:55;30.50;;;27.40;;
2049;SDS011;8478;49.208;8.806;2022-12-20T12:12:30;29.23;;;26.43;;
2049;SDS011;8478;49.208;8.806;2022-12-20T12:17:50;28.63;;;25.83;;
2049;SDS011;8478;49.208;8.806;2022-12-20T12:23:02;28.93;;;25.90;;
2049;SDS011;8478;49.208;8.806;2022-12-20T12:25:34;28.90;;;25.93;;
2049;SDS011;8478;49.208;8.806;2022-12-20T12:28:02;26.50;;;23.70;;
2049;SDS011;8478;49.208;8.806;2022-12-20T12:30:33;30.50;;;24.70;;
2049;SDS011;8478;49.208;8.806;2022-12-20T12:33:05;27.67;;;24.70;;
2049;SDS011;8478;49.208;8.806;2022-12-20T12:36:34;27.37;;;24.70;;
2049;SDS011;8478;49.208;8.806;2022-12-20T12:47:23;27.10;;;24.77;;
2049;SDS011;8478;49.208;8.806;2022-12-20T12:49:57;27.17;;;24.67;;
2049;SDS011;8478;49.208;8.806;2022-12-20T12:58:38;27.77;;;25.07;;
2049;SDS011;8478;49.208;8.806;2022-12-20T13:00:59;26.60;;;23.20;;
2049;SDS011;8478;49.208;8.806;2022-12-20T13:11:30;27.03;;;24.23;;
2049;SDS011;8478;49.208;8.806;2022-12-20T13:16:45;25.57;;;23.20;;
2049;SDS011;8478;49.208;8.806;2022-12-20T13:19:13;23.87;;;21.63;;
2049;SDS011;8478;49.208;8.806;2022-12-20T13:29:55;25.90;;;23.43;;
2049;SDS011;8478;49.208;8.806;2022-12-20T13:37:52;24.43;;;21.97;;
2049;SDS011;8478;49.208;8.806;2022-12-20T13:40:41;25.03;;;22.53;;
2049;SDS011;8478;49.208;8.806;2022-12-20T13:45:50;23.43;;;21.20;;
2049;SDS011;8478;49.208;8.806;2022-12-20T13:51:18;19.90;;;18.00;;
2049;SDS011;8478;49.208;8.806;2022-12-20T13:56:31;19.47;;;17.70;;
2049;SDS011;8478;49.208;8.806;2022-12-20T13:59:05;17.20;;;15.63;;
2049;SDS011;8478;49.208;8.806;2022-12-20T14:01:45;17.13;;;15.63;;
2049;SDS011;8478;49.208;8.806;2022-12-20T14:04:17;16.83;;;15.37;;
2049;SDS011;8478;49.208;8.806;2022-12-20T14:06:48;17.17;;;15.53;;
2049;SDS011;8478;49.208;8.806;2022-12-20T14:09:36;16.27;;;14.67;;
2049;SDS011;8478;49.208;8.806;2022-12-20T14:12:03;15.50;;;14.10;;
2049;SDS011;8478;49.208;8.806;2022-12-20T14:14:35;15.80;;;14.43;;
2049;SDS011;8478;49.208;8.806;2022-12-20T14:20:11;14.47;;;12.97;;
2049;SDS011;8478;49.208;8.806;2022-12-20T14:22:54;16.30;;;14.70;;
2049;SDS011;8478;49.208;8.806;2022-12-20T14:25:24;13.93;;;12.73;;
2049;SDS011;8478;49.208;8.806;2022-12-20T14:27:54;14.53;;;13.23;;
2049;SDS011;8478;49.208;8.806;2022-12-20T14:30:27;14.57;;;13.27;;
2049;SDS011;8478;49.208;8.806;2022-12-20T14:32:56;14.53;;;13.17;;
2049;SDS011;8478;49.208;8.806;2022-12-20T14:35:23;14.37;;;12.90;;
2049;SDS011;8478;49.208;8.806;2022-12-20T14:37:54;15.30;;;14.00;;
2049;SDS011;8478;49.208;8.806;2022-12-20T14:40:24;12.63;;;11.73;;
2049;SDS011;8478;49.208;8.806;2022-12-20T14:42:52;14.07;;;12.70;;
2049;SDS011;8478;49.208;8.806;2022-12-20T14:45:20;13.60;;;12.40;;
2049;SDS011;8478;49.208;8.806;2022-12-20T14:48:03;13.57;;;12.27;;
2049;SDS011;8478;49.208;8.806;2022-12-20T14:50:37;14.20;;;12.90;;
2049;SDS011;8478;49.208;8.806;2022-12-20T14:53:14;13.40;;;12.27;;
2049;SDS011;8478;49.208;8.806;2022-12-20T14:55:44;12.93;;;11.77;;
2049;SDS011;8478;49.208;8.806;2022-12-20T14:58:25;13.80;;;12.60;;
2049;SDS011;8478;49.208;8.806;2022-12-20T15:01:33;13.70;;;12.40;;
2049;SDS011;8478;49.208;8.806;2022-12-20T15:03:50;12.53;;;11.53;;
2049;SDS011;8478;49.208;8.806;2022-12-20T15:06:33;14.10;;;12.90;;
2049;SDS011;8478;49.208;8.806;2022-12-20T15:09:09;13.13;;;11.93;;
2049;SDS011;8478;49.208;8.806;2022-12-20T15:11:36;13.50;;;12.30;;
2049;SDS011;8478;49.208;8.806;2022-12-20T15:17:03;13.57;;;12.40;;
2049;SDS011;8478;49.208;8.806;2022-12-20T15:19:34;12.40;;;11.30;;
2049;SDS011;8478;49.208;8.806;2022-12-20T15:22:01;13.00;;;12.00;;
2049;SDS011;8478;49.208;8.806;2022-12-20T15:24:27;13.00;;;11.80;;
2049;SDS011;8478;49.208;8.806;2022-12-20T15:26:53;12.57;;;11.47;;
2049;SDS011;8478;49.208;8.806;2022-12-20T15:31:47;13.00;;;11.70;;
2049;SDS011;8478;49.208;8.806;2022-12-20T15:34:17;12.43;;;11.43;;
2049;SDS011;8478;49.208;8.806;2022-12-20T15:36:48;12.70;;;11.70;;
2049;SDS011;8478;49.208;8.806;2022-12-20T15:39:14;13.60;;;12.40;;
2049;SDS011;8478;49.208;8.806;2022-12-20T15:41:42;13.60;;;12.40;;
2049;SDS011;8478;49.208;8.806;2022-12-20T15:44:12;13.30;;;11.90;;
2049;SDS011;8478;49.208;8.806;2022-12-20T15:46:42;12.10;;;11.00;;
2049;SDS011;8478;49.208;8.806;2022-12-20T15:49:12;13.13;;;12.13;;
2049;SDS011;8478;49.208;8.806;2022-12-20T15:51:40;13.27;;;12.00;;
2049;SDS011;8478;49.208;8.806;2022-12-20T15:54:14;14.20;;;12.80;;
2049;SDS011;8478;49.208;8.806;2022-12-20T15:56:48;14.20;;;12.90;;
2049;SDS011;8478;49.208;8.806;2022-12-20T15:59:15;14.80;;;13.30;;
2049;SDS011;8478;49.208;8.806;2022-12-20T16:01:41;14.47;;;13.10;;
2049;SDS011;8478;49.208;8.806;2022-12-20T16:04:08;13.80;;;12.57;;
2049;SDS011;8478;49.208;8.806;2022-12-20T16:06:42;14.87;;;13.50;;
2049;SDS011;8478;49.208;8.806;2022-12-20T16:09:09;13.07;;;11.97;;
2049;SDS011;8478;49.208;8.806;2022-12-20T16:11:35;16.13;;;14.73;;
2049;SDS011;8478;49.208;8.806;2022-12-20T16:14:01;14.33;;;13.23;;
2049;SDS011;8478;49.208;8.806;2022-12-20T16:16:28;13.60;;;12.50;;
2049;SDS011;8478;49.208;8.806;2022-12-20T16:18:56;14.40;;;13.10;;
2049;SDS011;8478;49.208;8.806;2022-12-20T16:21:23;13.53;;;12.43;;
2049;SDS011;8478;49.208;8.806;2022-12-20T16:23:52;15.10;;;13.70;;
2049;SDS011;8478;49.208;8.806;2022-12-20T16:26:19;14.77;;;13.43;;
2049;SDS011;8478;49.208;8.806;2022-12-20T16:28:48;14.30;;;13.03;;
2049;SDS011;8478;49.208;8.806;2022-12-20T16:31:25;13.60;;;12.50;;
2049;SDS011;8478;49.208;8.806;2022-12-20T16:33:58;13.20;;;12.00;;
2049;SDS011;8478;49.208;8.806;2022-12-20T16:36:29;13.27;;;12.13;;
2049;SDS011;8478;49.208;8.806;2022-12-20T16:38:55;13.63;;;12.43;;
2049;SDS011;8478;49.208;8.806;2022-12-20T16:41:23;14.60;;;13.23;;
2049;SDS011;8478;49.208;8.806;2022-12-20T16:43:52;13.93;;;12.63;;
2049;SDS011;8478;49.208;8.806;2022-12-20T16:46:19;14.20;;;12.80;;
2049;SDS011;8478;49.208;8.806;2022-12-20T16:48:46;14.00;;;12.63;;
2049;SDS011;8478;49.208;8.806;2022-12-20T16:53:55;13.50;;;12.40;;
2049;SDS011;8478;49.208;8.806;2022-12-20T16:56:21;12.83;;;11.83;;
2049;SDS011;8478;49.208;8.806;2022-12-20T16:58:48;13.50;;;12.30;;
2049;SDS011;8478;49.208;8.806;2022-12-20T17:01:15;12.80;;;11.80;;
2049;SDS011;8478;49.208;8.806;2022-12-20T17:03:46;13.23;;;12.13;;
2049;SDS011;8478;49.208;8.806;2022-12-20T17:06:12;12.80;;;11.80;;
2049;SDS011;8478;49.208;8.806;2022-12-20T17:08:39;12.17;;;11.10;;
2049;SDS011;8478;49.208;8.806;2022-12-20T17:11:40;12.73;;;11.63;;
2049;SDS011;8478;49.208;8.806;2022-12-20T17:13:59;11.80;;;10.77;;
2049;SDS011;8478;49.208;8.806;2022-12-20T17:16:26;11.67;;;10.67;;
2049;SDS011;8478;49.208;8.806;2022-12-20T17:18:54;12.13;;;10.93;;
2049;SDS011;8478;49.208;8.806;2022-12-20T17:21:43;11.97;;;11.07;;
2049;SDS011;8478;49.208;8.806;2022-12-20T17:24:18;12.17;;;10.93;;